sensor_id;sensor_type;location;lat;lon;timestamp;temperature;humidity
38726;DHT22;24474;48.906;8.808;2023-03-13T00:02:13;7.80;99.90
38726;DHT22;24474;48.906;8.808;2023-03-13T00:07:50;7.80;99.90
38726;DHT22;24474;48.906;8.808;2023-03-13T00:10:17;7.80;99.90
38726;DHT22;24474;48.906;8.808;2023-03-13T00:12:44;7.80;99.90
38726;DHT22;24474;48.906;8.808;2023-03-13T00:15:11;7.80;99.90
38726;DHT22;24474;48.906;8.808;2023-03-13T00:17:37;7.80;99.90
38726;DHT22;24474;48.906;8.808;2023-03-13T00:20:04;7.80;99.90
38726;DHT22;24474;48.906;8.808;2023-03-13T00:22:31;7.70;99.90
38726;DHT22;24474;48.906;8.808;2023-03-13T00:24:58;7.60;99.90
38726;DHT22;24474;48.906;8.808;2023-03-13T00:27:23;7.70;99.90
38726;DHT22;24474;48.906;8.808;2023-03-13T00:29:49;7.70;99.90
38726;DHT22;24474;48.906;8.808;2023-03-13T00:32:16;7.80;99.90
38726;DHT22;24474;48.906;8.808;2023-03-13T00:34:43;7.80;99.90
38726;DHT22;24474;48.906;8.808;2023-03-13T00:37:32;7.80;99.90
38726;DHT22;24474;48.906;8.808;2023-03-13T00:39:58;7.80;99.90
38726;DHT22;24474;48.906;8.808;2023-03-13T00:42:25;7.80;99.90
38726;DHT22;24474;48.906;8.808;2023-03-13T00:44:52;7.80;99.90
38726;DHT22;24474;48.906;8.808;2023-03-13T00:47:17;7.90;99.90
38726;DHT22;24474;48.906;8.808;2023-03-13T00:49:43;7.90;99.90
38726;DHT22;24474;48.906;8.808;2023-03-13T00:52:09;7.90;99.90
38726;DHT22;24474;48.906;8.808;2023-03-13T00:54:35;7.90;99.90
38726;DHT22;24474;48.906;8.808;2023-03-13T00:57:01;7.90;99.90
38726;DHT22;24474;48.906;8.808;2023-03-13T01:00:03;7.90;99.90
38726;DHT22;24474;48.906;8.808;2023-03-13T01:02:33;7.90;99.90
38726;DHT22;24474;48.906;8.808;2023-03-13T01:04:59;7.90;99.90
38726;DHT22;24474;48.906;8.808;2023-03-13T01:07:24;7.90;99.90
38726;DHT22;24474;48.906;8.808;2023-03-13T01:09:52;7.90;99.90
38726;DHT22;24474;48.906;8.808;2023-03-13T01:12:18;7.90;99.90
38726;DHT22;24474;48.906;8.808;2023-03-13T01:14:45;7.90;99.90
38726;DHT22;24474;48.906;8.808;2023-03-13T01:17:15;7.90;99.90
38726;DHT22;24474;48.906;8.808;2023-03-13T01:19:40;7.90;99.90
38726;DHT22;24474;48.906;8.808;2023-03-13T01:22:06;7.90;99.90
38726;DHT22;24474;48.906;8.808;2023-03-13T01:24:47;7.90;99.90
38726;DHT22;24474;48.906;8.808;2023-03-13T01:27:17;7.90;99.90
38726;DHT22;24474;48.906;8.808;2023-03-13T01:29:44;7.90;99.90
38726;DHT22;24474;48.906;8.808;2023-03-13T01:32:22;7.90;99.90
38726;DHT22;24474;48.906;8.808;2023-03-13T01:34:49;7.90;99.90
38726;DHT22;24474;48.906;8.808;2023-03-13T01:37:15;7.90;99.90
38726;DHT22;24474;48.906;8.808;2023-03-13T01:39:42;7.90;99.90
38726;DHT22;24474;48.906;8.808;2023-03-13T01:42:08;8.00;99.90
38726;DHT22;24474;48.906;8.808;2023-03-13T01:44:55;8.00;99.90
38726;DHT22;24474;48.906;8.808;2023-03-13T01:47:23;8.00;99.90
38726;DHT22;24474;48.906;8.808;2023-03-13T01:49:54;8.00;99.90
38726;DHT22;24474;48.906;8.808;2023-03-13T01:52:25;8.10;99.90
38726;DHT22;24474;48.906;8.808;2023-03-13T01:58:16;8.10;99.90
38726;DHT22;24474;48.906;8.808;2023-03-13T02:00:42;8.20;99.90
38726;DHT22;24474;48.906;8.808;2023-03-13T02:03:16;8.20;99.90
38726;DHT22;24474;48.906;8.808;2023-03-13T02:05:46;8.20;99.90
38726;DHT22;24474;48.906;8.808;2023-03-13T02:08:37;8.20;99.90
38726;DHT22;24474;48.906;8.808;2023-03-13T02:11:23;8.30;99.90
38726;DHT22;24474;48.906;8.808;2023-03-13T02:13:55;8.30;99.90
38726;DHT22;24474;48.906;8.808;2023-03-13T02:16:23;8.30;99.90
38726;DHT22;24474;48.906;8.808;2023-03-13T02:18:49;8.40;99.90
38726;DHT22;24474;48.906;8.808;2023-03-13T02:21:40;8.40;99.90
38726;DHT22;24474;48.906;8.808;2023-03-13T02:26:35;8.40;99.90
38726;DHT22;24474;48.906;8.808;2023-03-13T02:29:02;8.40;99.90
38726;DHT22;24474;48.906;8.808;2023-03-13T02:31:30;8.30;99.90
38726;DHT22;24474;48.906;8.808;2023-03-13T02:33:58;8.40;99.90
38726;DHT22;24474;48.906;8.808;2023-03-13T02:36:27;8.40;99.90
38726;DHT22;24474;48.906;8.808;2023-03-13T02:42:04;8.30;99.90
38726;DHT22;24474;48.906;8.808;2023-03-13T02:44:38;8.30;99.90
38726;DHT22;24474;48.906;8.808;2023-03-13T02:47:04;8.30;99.90
38726;DHT22;24474;48.906;8.808;2023-03-13T02:49:31;8.40;99.90
38726;DHT22;24474;48.906;8.808;2023-03-13T02:52:52;8.40;99.90
38726;DHT22;24474;48.906;8.808;2023-03-13T02:55:14;8.40;99.90
38726;DHT22;24474;48.906;8.808;2023-03-13T02:57:44;8.50;99.90
38726;DHT22;24474;48.906;8.808;2023-03-13T03:00:11;8.50;99.90
38726;DHT22;24474;48.906;8.808;2023-03-13T03:02:41;8.60;99.90
38726;DHT22;24474;48.906;8.808;2023-03-13T03:05:17;8.70;99.90
38726;DHT22;24474;48.906;8.808;2023-03-13T03:07:44;8.80;99.90
38726;DHT22;24474;48.906;8.808;2023-03-13T03:10:11;8.90;99.90
38726;DHT22;24474;48.906;8.808;2023-03-13T03:12:38;9.00;99.90
38726;DHT22;24474;48.906;8.808;2023-03-13T03:15:05;9.00;99.90
38726;DHT22;24474;48.906;8.808;2023-03-13T03:17:32;9.10;99.90
38726;DHT22;24474;48.906;8.808;2023-03-13T03:20:02;9.10;99.90
38726;DHT22;24474;48.906;8.808;2023-03-13T03:25:36;9.20;99.90
38726;DHT22;24474;48.906;8.808;2023-03-13T03:28:04;9.30;99.90
38726;DHT22;24474;48.906;8.808;2023-03-13T03:30:29;9.40;99.90
38726;DHT22;24474;48.906;8.808;2023-03-13T03:32:55;9.40;99.90
38726;DHT22;24474;48.906;8.808;2023-03-13T03:35:23;9.50;99.90
38726;DHT22;24474;48.906;8.808;2023-03-13T03:37:48;9.50;99.90
38726;DHT22;24474;48.906;8.808;2023-03-13T03:40:15;9.60;99.90
38726;DHT22;24474;48.906;8.808;2023-03-13T03:42:41;9.60;99.90
38726;DHT22;24474;48.906;8.808;2023-03-13T03:48:29;9.70;99.90
38726;DHT22;24474;48.906;8.808;2023-03-13T03:50:57;9.70;99.90
38726;DHT22;24474;48.906;8.808;2023-03-13T03:53:25;9.70;99.90
38726;DHT22;24474;48.906;8.808;2023-03-13T03:55:52;9.80;99.90
38726;DHT22;24474;48.906;8.808;2023-03-13T03:58:19;9.80;99.90
38726;DHT22;24474;48.906;8.808;2023-03-13T04:00:46;9.80;99.90
38726;DHT22;24474;48.906;8.808;2023-03-13T04:03:13;9.90;99.90
38726;DHT22;24474;48.906;8.808;2023-03-13T04:05:39;9.90;99.90
38726;DHT22;24474;48.906;8.808;2023-03-13T04:08:06;9.90;99.90
38726;DHT22;24474;48.906;8.808;2023-03-13T04:10:35;9.90;99.90
38726;DHT22;24474;48.906;8.808;2023-03-13T04:13:01;9.90;99.90
38726;DHT22;24474;48.906;8.808;2023-03-13T04:15:28;9.90;99.90
38726;DHT22;24474;48.906;8.808;2023-03-13T04:21:17;9.80;99.90
38726;DHT22;24474;48.906;8.808;2023-03-13T04:23:43;9.90;99.90
38726;DHT22;24474;48.906;8.808;2023-03-13T04:26:10;9.90;99.90
38726;DHT22;24474;48.906;8.808;2023-03-13T04:28:39;9.90;99.90
38726;DHT22;24474;48.906;8.808;2023-03-13T04:31:32;9.90;99.90
38726;DHT22;24474;48.906;8.808;2023-03-13T04:33:58;9.90;99.90
38726;DHT22;24474;48.906;8.808;2023-03-13T04:36:23;9.90;99.90
38726;DHT22;24474;48.906;8.808;2023-03-13T04:38:52;10.00;99.90
38726;DHT22;24474;48.906;8.808;2023-03-13T04:41:18;10.00;99.90
38726;DHT22;24474;48.906;8.808;2023-03-13T04:43:44;10.00;99.90
38726;DHT22;24474;48.906;8.808;2023-03-13T04:46:11;10.00;99.90
38726;DHT22;24474;48.906;8.808;2023-03-13T04:48:37;10.00;99.90
38726;DHT22;24474;48.906;8.808;2023-03-13T04:51:03;10.00;99.90
38726;DHT22;24474;48.906;8.808;2023-03-13T04:53:31;10.00;99.90
38726;DHT22;24474;48.906;8.808;2023-03-13T04:55:58;10.10;99.90
38726;DHT22;24474;48.906;8.808;2023-03-13T04:58:25;10.10;99.90
38726;DHT22;24474;48.906;8.808;2023-03-13T05:00:52;10.10;99.90
38726;DHT22;24474;48.906;8.808;2023-03-13T05:03:19;10.10;99.90
38726;DHT22;24474;48.906;8.808;2023-03-13T05:05:44;10.10;99.90
38726;DHT22;24474;48.906;8.808;2023-03-13T05:08:11;10.10;99.90
38726;DHT22;24474;48.906;8.808;2023-03-13T05:10:38;10.10;99.90
38726;DHT22;24474;48.906;8.808;2023-03-13T05:13:05;10.10;99.90
38726;DHT22;24474;48.906;8.808;2023-03-13T05:15:57;10.10;99.90
38726;DHT22;24474;48.906;8.808;2023-03-13T05:18:24;10.10;99.90
38726;DHT22;24474;48.906;8.808;2023-03-13T05:20:51;10.20;99.90
38726;DHT22;24474;48.906;8.808;2023-03-13T05:23:17;10.20;99.90
38726;DHT22;24474;48.906;8.808;2023-03-13T05:25:43;10.20;99.90
38726;DHT22;24474;48.906;8.808;2023-03-13T05:28:10;10.20;99.90
38726;DHT22;24474;48.906;8.808;2023-03-13T05:30:37;10.20;99.90
38726;DHT22;24474;48.906;8.808;2023-03-13T05:33:03;10.30;99.90
38726;DHT22;24474;48.906;8.808;2023-03-13T05:35:29;10.30;99.90
38726;DHT22;24474;48.906;8.808;2023-03-13T05:38:00;10.30;99.90
38726;DHT22;24474;48.906;8.808;2023-03-13T05:40:26;10.40;99.90
38726;DHT22;24474;48.906;8.808;2023-03-13T05:42:52;10.50;99.90
38726;DHT22;24474;48.906;8.808;2023-03-13T05:45:19;10.40;99.90
38726;DHT22;24474;48.906;8.808;2023-03-13T05:47:46;10.40;99.90
38726;DHT22;24474;48.906;8.808;2023-03-13T05:50:12;10.40;99.90
38726;DHT22;24474;48.906;8.808;2023-03-13T05:52:39;10.40;99.90
38726;DHT22;24474;48.906;8.808;2023-03-13T05:55:06;10.40;99.90
38726;DHT22;24474;48.906;8.808;2023-03-13T05:57:33;10.50;99.90
38726;DHT22;24474;48.906;8.808;2023-03-13T06:00:03;10.40;99.90
38726;DHT22;24474;48.906;8.808;2023-03-13T06:02:29;10.50;99.90
38726;DHT22;24474;48.906;8.808;2023-03-13T06:04:56;10.60;99.90
38726;DHT22;24474;48.906;8.808;2023-03-13T06:07:23;10.70;99.90
38726;DHT22;24474;48.906;8.808;2023-03-13T06:09:50;10.70;99.90
38726;DHT22;24474;48.906;8.808;2023-03-13T06:12:16;10.60;99.90
38726;DHT22;24474;48.906;8.808;2023-03-13T06:14:43;10.60;99.90
38726;DHT22;24474;48.906;8.808;2023-03-13T06:17:10;10.70;99.90
38726;DHT22;24474;48.906;8.808;2023-03-13T06:19:37;10.80;99.90
38726;DHT22;24474;48.906;8.808;2023-03-13T06:22:04;10.80;99.90
38726;DHT22;24474;48.906;8.808;2023-03-13T06:24:32;10.80;99.90
38726;DHT22;24474;48.906;8.808;2023-03-13T06:26:57;10.90;99.90
38726;DHT22;24474;48.906;8.808;2023-03-13T06:29:24;11.00;99.90
38726;DHT22;24474;48.906;8.808;2023-03-13T06:31:52;11.00;99.90
38726;DHT22;24474;48.906;8.808;2023-03-13T06:34:18;11.10;99.90
38726;DHT22;24474;48.906;8.808;2023-03-13T06:36:43;11.20;99.90
38726;DHT22;24474;48.906;8.808;2023-03-13T06:39:11;11.30;99.90
38726;DHT22;24474;48.906;8.808;2023-03-13T06:45:00;11.30;99.90
38726;DHT22;24474;48.906;8.808;2023-03-13T06:47:33;11.50;99.90
38726;DHT22;24474;48.906;8.808;2023-03-13T06:50:00;11.50;99.90
38726;DHT22;24474;48.906;8.808;2023-03-13T06:52:27;11.60;99.90
38726;DHT22;24474;48.906;8.808;2023-03-13T06:54:53;11.60;99.90
38726;DHT22;24474;48.906;8.808;2023-03-13T06:57:19;11.70;99.90
38726;DHT22;24474;48.906;8.808;2023-03-13T06:59:49;11.80;99.90
38726;DHT22;24474;48.906;8.808;2023-03-13T07:02:16;11.80;99.90
38726;DHT22;24474;48.906;8.808;2023-03-13T07:04:42;11.80;99.90
38726;DHT22;24474;48.906;8.808;2023-03-13T07:07:09;11.80;99.90
38726;DHT22;24474;48.906;8.808;2023-03-13T07:09:37;11.80;99.90
38726;DHT22;24474;48.906;8.808;2023-03-13T07:12:07;11.90;99.90
38726;DHT22;24474;48.906;8.808;2023-03-13T07:14:37;11.90;99.90
38726;DHT22;24474;48.906;8.808;2023-03-13T07:17:04;11.90;99.90
38726;DHT22;24474;48.906;8.808;2023-03-13T07:19:29;11.90;99.90
38726;DHT22;24474;48.906;8.808;2023-03-13T07:21:58;12.10;99.90
38726;DHT22;24474;48.906;8.808;2023-03-13T07:24:27;12.10;99.90
38726;DHT22;24474;48.906;8.808;2023-03-13T07:30:15;12.20;99.90
38726;DHT22;24474;48.906;8.808;2023-03-13T07:32:42;12.20;99.90
38726;DHT22;24474;48.906;8.808;2023-03-13T07:35:09;12.20;99.90
38726;DHT22;24474;48.906;8.808;2023-03-13T07:37:35;12.30;99.90
38726;DHT22;24474;48.906;8.808;2023-03-13T07:43:26;12.30;99.90
38726;DHT22;24474;48.906;8.808;2023-03-13T07:46:01;12.40;99.90
38726;DHT22;24474;48.906;8.808;2023-03-13T07:48:34;12.40;99.90
38726;DHT22;24474;48.906;8.808;2023-03-13T07:51:00;12.50;99.90
38726;DHT22;24474;48.906;8.808;2023-03-13T07:53:27;12.50;99.90
38726;DHT22;24474;48.906;8.808;2023-03-13T07:56:05;12.60;99.90
38726;DHT22;24474;48.906;8.808;2023-03-13T07:58:34;12.60;99.90
38726;DHT22;24474;48.906;8.808;2023-03-13T08:01:26;12.70;99.90
38726;DHT22;24474;48.906;8.808;2023-03-13T08:03:53;12.80;99.90
38726;DHT22;24474;48.906;8.808;2023-03-13T08:06:22;12.80;99.90
38726;DHT22;24474;48.906;8.808;2023-03-13T08:08:51;12.90;99.90
38726;DHT22;24474;48.906;8.808;2023-03-13T08:11:20;12.90;99.90
38726;DHT22;24474;48.906;8.808;2023-03-13T08:13:52;12.90;99.90
38726;DHT22;24474;48.906;8.808;2023-03-13T08:16:22;12.90;99.90
38726;DHT22;24474;48.906;8.808;2023-03-13T08:18:53;13.00;99.90
38726;DHT22;24474;48.906;8.808;2023-03-13T08:24:05;13.10;99.90
38726;DHT22;24474;48.906;8.808;2023-03-13T08:26:34;13.10;99.90
38726;DHT22;24474;48.906;8.808;2023-03-13T08:29:04;13.10;99.90
38726;DHT22;24474;48.906;8.808;2023-03-13T08:31:35;13.20;99.90
38726;DHT22;24474;48.906;8.808;2023-03-13T08:36:56;13.30;99.90
38726;DHT22;24474;48.906;8.808;2023-03-13T08:39:24;13.40;99.90
38726;DHT22;24474;48.906;8.808;2023-03-13T08:41:50;13.50;99.90
38726;DHT22;24474;48.906;8.808;2023-03-13T08:44:18;13.50;99.90
38726;DHT22;24474;48.906;8.808;2023-03-13T08:46:47;13.50;99.90
38726;DHT22;24474;48.906;8.808;2023-03-13T08:49:13;13.60;99.90
38726;DHT22;24474;48.906;8.808;2023-03-13T08:51:42;13.60;99.90
38726;DHT22;24474;48.906;8.808;2023-03-13T08:54:09;13.70;99.90
38726;DHT22;24474;48.906;8.808;2023-03-13T08:56:39;13.70;99.90
38726;DHT22;24474;48.906;8.808;2023-03-13T08:59:06;13.80;99.90
38726;DHT22;24474;48.906;8.808;2023-03-13T09:01:33;13.80;99.90
38726;DHT22;24474;48.906;8.808;2023-03-13T09:04:01;13.80;99.90
38726;DHT22;24474;48.906;8.808;2023-03-13T09:06:28;13.80;99.90
38726;DHT22;24474;48.906;8.808;2023-03-13T09:08:56;13.90;99.90
38726;DHT22;24474;48.906;8.808;2023-03-13T09:11:22;14.00;99.90
38726;DHT22;24474;48.906;8.808;2023-03-13T09:13:50;14.10;99.90
38726;DHT22;24474;48.906;8.808;2023-03-13T09:16:33;14.20;99.90
38726;DHT22;24474;48.906;8.808;2023-03-13T09:18:59;14.20;99.90
38726;DHT22;24474;48.906;8.808;2023-03-13T09:21:30;14.10;99.90
38726;DHT22;24474;48.906;8.808;2023-03-13T09:23:58;14.00;99.90
38726;DHT22;24474;48.906;8.808;2023-03-13T09:26:27;14.00;99.90
38726;DHT22;24474;48.906;8.808;2023-03-13T09:28:58;14.00;99.90
38726;DHT22;24474;48.906;8.808;2023-03-13T09:31:27;14.00;99.90
38726;DHT22;24474;48.906;8.808;2023-03-13T09:33:53;14.10;99.90
38726;DHT22;24474;48.906;8.808;2023-03-13T09:36:21;14.20;99.90
38726;DHT22;24474;48.906;8.808;2023-03-13T09:38:51;14.20;99.90
38726;DHT22;24474;48.906;8.808;2023-03-13T09:46:44;14.30;99.90
38726;DHT22;24474;48.906;8.808;2023-03-13T09:52:38;14.60;99.90
38726;DHT22;24474;48.906;8.808;2023-03-13T09:55:23;14.80;99.90
38726;DHT22;24474;48.906;8.808;2023-03-13T09:58:16;14.80;99.90
38726;DHT22;24474;48.906;8.808;2023-03-13T10:00:56;14.80;99.90
38726;DHT22;24474;48.906;8.808;2023-03-13T10:03:28;14.90;99.90
38726;DHT22;24474;48.906;8.808;2023-03-13T10:06:05;15.00;99.90
38726;DHT22;24474;48.906;8.808;2023-03-13T10:08:34;15.10;99.90
38726;DHT22;24474;48.906;8.808;2023-03-13T10:11:23;15.10;99.90
38726;DHT22;24474;48.906;8.808;2023-03-13T10:13:50;15.10;99.90
38726;DHT22;24474;48.906;8.808;2023-03-13T10:18:58;15.20;99.90
38726;DHT22;24474;48.906;8.808;2023-03-13T10:21:33;15.10;99.90
38726;DHT22;24474;48.906;8.808;2023-03-13T10:24:17;15.10;99.90
38726;DHT22;24474;48.906;8.808;2023-03-13T10:26:46;15.10;99.90
38726;DHT22;24474;48.906;8.808;2023-03-13T10:34:28;15.20;99.90
38726;DHT22;24474;48.906;8.808;2023-03-13T10:36:59;15.30;99.90
38726;DHT22;24474;48.906;8.808;2023-03-13T10:39:31;15.30;99.90
38726;DHT22;24474;48.906;8.808;2023-03-13T10:42:17;15.40;99.90
38726;DHT22;24474;48.906;8.808;2023-03-13T10:44:45;15.30;99.90
38726;DHT22;24474;48.906;8.808;2023-03-13T10:47:13;15.30;99.90
38726;DHT22;24474;48.906;8.808;2023-03-13T10:49:51;15.30;99.90
38726;DHT22;24474;48.906;8.808;2023-03-13T10:52:45;15.40;99.90
38726;DHT22;24474;48.906;8.808;2023-03-13T10:55:21;15.30;99.90
38726;DHT22;24474;48.906;8.808;2023-03-13T10:58:02;15.30;99.90
38726;DHT22;24474;48.906;8.808;2023-03-13T11:00:37;15.20;99.90
38726;DHT22;24474;48.906;8.808;2023-03-13T11:03:18;15.20;99.90
38726;DHT22;24474;48.906;8.808;2023-03-13T11:06:14;15.10;99.90
38726;DHT22;24474;48.906;8.808;2023-03-13T11:08:46;15.10;99.90
38726;DHT22;24474;48.906;8.808;2023-03-13T11:11:19;15.10;99.90
38726;DHT22;24474;48.906;8.808;2023-03-13T11:13:45;15.10;99.90
38726;DHT22;24474;48.906;8.808;2023-03-13T11:16:19;15.10;99.90
38726;DHT22;24474;48.906;8.808;2023-03-13T11:27:48;15.00;99.90
38726;DHT22;24474;48.906;8.808;2023-03-13T11:33:20;15.00;99.90
38726;DHT22;24474;48.906;8.808;2023-03-13T11:38:38;15.00;99.90
38726;DHT22;24474;48.906;8.808;2023-03-13T11:41:20;15.10;99.90
38726;DHT22;24474;48.906;8.808;2023-03-13T11:52:36;15.10;99.90
38726;DHT22;24474;48.906;8.808;2023-03-13T12:01:15;15.30;99.90
38726;DHT22;24474;48.906;8.808;2023-03-13T12:04:10;15.30;99.90
38726;DHT22;24474;48.906;8.808;2023-03-13T12:12:45;15.40;99.90
38726;DHT22;24474;48.906;8.808;2023-03-13T12:26:53;15.90;99.90
38726;DHT22;24474;48.906;8.808;2023-03-13T12:29:35;16.10;99.90
38726;DHT22;24474;48.906;8.808;2023-03-13T12:35:27;16.30;99.90
38726;DHT22;24474;48.906;8.808;2023-03-13T12:38:25;16.50;99.90
38726;DHT22;24474;48.906;8.808;2023-03-13T12:43:58;16.80;99.90
38726;DHT22;24474;48.906;8.808;2023-03-13T12:46:34;17.00;99.90
38726;DHT22;24474;48.906;8.808;2023-03-13T13:00:48;17.30;99.90
38726;DHT22;24474;48.906;8.808;2023-03-13T13:03:34;17.30;99.90
38726;DHT22;24474;48.906;8.808;2023-03-13T13:06:14;17.30;99.90
38726;DHT22;24474;48.906;8.808;2023-03-13T13:09:01;17.40;99.90
38726;DHT22;24474;48.906;8.808;2023-03-13T13:16:53;17.50;99.90
38726;DHT22;24474;48.906;8.808;2023-03-13T13:27:51;17.70;99.90
38726;DHT22;24474;48.906;8.808;2023-03-13T13:32:53;17.80;99.90
38726;DHT22;24474;48.906;8.808;2023-03-13T13:38:42;17.90;99.90
38726;DHT22;24474;48.906;8.808;2023-03-13T13:43:40;17.90;99.90
38726;DHT22;24474;48.906;8.808;2023-03-13T13:46:30;17.80;99.90
38726;DHT22;24474;48.906;8.808;2023-03-13T13:49:33;17.80;99.90
38726;DHT22;24474;48.906;8.808;2023-03-13T13:57:30;17.80;99.90
38726;DHT22;24474;48.906;8.808;2023-03-13T14:06:16;17.80;99.90
38726;DHT22;24474;48.906;8.808;2023-03-13T14:08:47;17.80;99.90
38726;DHT22;24474;48.906;8.808;2023-03-13T14:11:35;17.90;99.90
38726;DHT22;24474;48.906;8.808;2023-03-13T14:17:27;18.10;99.90
38726;DHT22;24474;48.906;8.808;2023-03-13T14:19:54;18.00;99.90
38726;DHT22;24474;48.906;8.808;2023-03-13T14:22:21;18.10;99.90
38726;DHT22;24474;48.906;8.808;2023-03-13T14:24:57;18.20;99.90
38726;DHT22;24474;48.906;8.808;2023-03-13T14:27:24;18.30;99.90
38726;DHT22;24474;48.906;8.808;2023-03-13T14:30:04;18.40;99.90
38726;DHT22;24474;48.906;8.808;2023-03-13T14:32:30;18.40;99.90
38726;DHT22;24474;48.906;8.808;2023-03-13T14:34:56;18.40;99.90
38726;DHT22;24474;48.906;8.808;2023-03-13T14:37:46;18.50;99.90
38726;DHT22;24474;48.906;8.808;2023-03-13T14:40:20;18.50;99.90
38726;DHT22;24474;48.906;8.808;2023-03-13T14:42:53;18.50;99.90
38726;DHT22;24474;48.906;8.808;2023-03-13T14:45:39;18.50;99.90
38726;DHT22;24474;48.906;8.808;2023-03-13T14:48:29;18.50;99.90
38726;DHT22;24474;48.906;8.808;2023-03-13T14:53:35;18.50;99.90
38726;DHT22;24474;48.906;8.808;2023-03-13T14:56:16;18.40;99.90
38726;DHT22;24474;48.906;8.808;2023-03-13T14:58:47;18.40;99.90
38726;DHT22;24474;48.906;8.808;2023-03-13T15:01:26;18.60;99.90
38726;DHT22;24474;48.906;8.808;2023-03-13T15:03:56;18.60;99.90
38726;DHT22;24474;48.906;8.808;2023-03-13T15:06:27;18.60;99.90
38726;DHT22;24474;48.906;8.808;2023-03-13T15:09:18;18.50;99.90
38726;DHT22;24474;48.906;8.808;2023-03-13T15:11:59;18.60;99.90
38726;DHT22;24474;48.906;8.808;2023-03-13T15:14:41;18.60;99.90
38726;DHT22;24474;48.906;8.808;2023-03-13T15:17:24;18.60;99.90
38726;DHT22;24474;48.906;8.808;2023-03-13T15:19:56;18.60;99.90
38726;DHT22;24474;48.906;8.808;2023-03-13T15:22:39;18.70;99.90
38726;DHT22;24474;48.906;8.808;2023-03-13T15:25:21;18.70;99.90
38726;DHT22;24474;48.906;8.808;2023-03-13T15:27:49;18.70;99.90
38726;DHT22;24474;48.906;8.808;2023-03-13T15:30:20;18.70;99.90
38726;DHT22;24474;48.906;8.808;2023-03-13T15:32:48;18.70;99.90
38726;DHT22;24474;48.906;8.808;2023-03-13T15:35:27;18.70;99.90
38726;DHT22;24474;48.906;8.808;2023-03-13T15:37:55;18.60;99.90
38726;DHT22;24474;48.906;8.808;2023-03-13T15:40:23;18.60;99.90
38726;DHT22;24474;48.906;8.808;2023-03-13T15:42:51;18.60;99.90
38726;DHT22;24474;48.906;8.808;2023-03-13T15:45:19;18.60;99.90
38726;DHT22;24474;48.906;8.808;2023-03-13T15:47:46;18.60;99.90
38726;DHT22;24474;48.906;8.808;2023-03-13T15:50:17;18.60;99.90
38726;DHT22;24474;48.906;8.808;2023-03-13T15:52:44;18.60;99.90
38726;DHT22;24474;48.906;8.808;2023-03-13T15:55:12;18.60;99.90
38726;DHT22;24474;48.906;8.808;2023-03-13T15:57:49;18.60;99.90
38726;DHT22;24474;48.906;8.808;2023-03-13T16:00:19;18.60;99.90
38726;DHT22;24474;48.906;8.808;2023-03-13T16:02:46;18.60;99.90
38726;DHT22;24474;48.906;8.808;2023-03-13T16:05:13;18.50;99.90
38726;DHT22;24474;48.906;8.808;2023-03-13T16:07:38;18.60;99.90
38726;DHT22;24474;48.906;8.808;2023-03-13T16:10:15;18.60;99.90
38726;DHT22;24474;48.906;8.808;2023-03-13T16:12:41;18.60;99.90
38726;DHT22;24474;48.906;8.808;2023-03-13T16:15:08;18.60;99.90
38726;DHT22;24474;48.906;8.808;2023-03-13T16:17:36;18.60;99.90
38726;DHT22;24474;48.906;8.808;2023-03-13T16:20:08;18.60;99.90
38726;DHT22;24474;48.906;8.808;2023-03-13T16:22:36;18.60;99.90
38726;DHT22;24474;48.906;8.808;2023-03-13T16:25:03;18.50;99.90
38726;DHT22;24474;48.906;8.808;2023-03-13T16:27:30;18.40;99.90
38726;DHT22;24474;48.906;8.808;2023-03-13T16:29:56;18.40;99.90
38726;DHT22;24474;48.906;8.808;2023-03-13T16:32:23;18.30;99.90
38726;DHT22;24474;48.906;8.808;2023-03-13T16:34:49;18.30;99.90
38726;DHT22;24474;48.906;8.808;2023-03-13T16:37:17;18.20;99.90
38726;DHT22;24474;48.906;8.808;2023-03-13T16:39:54;18.10;99.90
38726;DHT22;24474;48.906;8.808;2023-03-13T16:42:21;18.10;99.90
38726;DHT22;24474;48.906;8.808;2023-03-13T16:44:48;18.10;99.90
38726;DHT22;24474;48.906;8.808;2023-03-13T16:47:27;18.10;99.90
38726;DHT22;24474;48.906;8.808;2023-03-13T16:49:56;18.00;99.90
38726;DHT22;24474;48.906;8.808;2023-03-13T16:52:24;18.10;99.90
38726;DHT22;24474;48.906;8.808;2023-03-13T16:54:51;18.00;99.90
38726;DHT22;24474;48.906;8.808;2023-03-13T16:57:22;18.00;99.90
38726;DHT22;24474;48.906;8.808;2023-03-13T16:59:50;18.00;99.90
38726;DHT22;24474;48.906;8.808;2023-03-13T17:02:20;17.90;99.90
38726;DHT22;24474;48.906;8.808;2023-03-13T17:04:46;17.90;99.90
38726;DHT22;24474;48.906;8.808;2023-03-13T17:09:46;17.70;99.90
38726;DHT22;24474;48.906;8.808;2023-03-13T17:12:12;17.70;99.90
38726;DHT22;24474;48.906;8.808;2023-03-13T17:14:40;17.60;99.90
38726;DHT22;24474;48.906;8.808;2023-03-13T17:17:16;17.50;99.90
38726;DHT22;24474;48.906;8.808;2023-03-13T17:19:44;17.50;99.90
38726;DHT22;24474;48.906;8.808;2023-03-13T17:22:14;17.50;99.90
38726;DHT22;24474;48.906;8.808;2023-03-13T17:24:41;17.40;99.90
38726;DHT22;24474;48.906;8.808;2023-03-13T17:27:14;17.40;99.90
38726;DHT22;24474;48.906;8.808;2023-03-13T17:29:42;17.30;99.90
38726;DHT22;24474;48.906;8.808;2023-03-13T17:32:12;17.30;99.90
38726;DHT22;24474;48.906;8.808;2023-03-13T17:34:40;17.20;99.90
38726;DHT22;24474;48.906;8.808;2023-03-13T17:37:20;17.20;99.90
38726;DHT22;24474;48.906;8.808;2023-03-13T17:39:48;17.10;99.90
38726;DHT22;24474;48.906;8.808;2023-03-13T17:42:18;17.10;99.90
38726;DHT22;24474;48.906;8.808;2023-03-13T17:44:44;17.10;99.90
38726;DHT22;24474;48.906;8.808;2023-03-13T17:47:14;17.10;99.90
38726;DHT22;24474;48.906;8.808;2023-03-13T17:49:42;17.00;99.90
38726;DHT22;24474;48.906;8.808;2023-03-13T17:52:14;17.00;99.90
38726;DHT22;24474;48.906;8.808;2023-03-13T17:54:40;17.00;99.90
38726;DHT22;24474;48.906;8.808;2023-03-13T17:57:16;16.90;99.90
38726;DHT22;24474;48.906;8.808;2023-03-13T17:59:44;17.00;99.90
38726;DHT22;24474;48.906;8.808;2023-03-13T18:02:16;17.00;99.90
38726;DHT22;24474;48.906;8.808;2023-03-13T18:04:45;17.00;99.90
38726;DHT22;24474;48.906;8.808;2023-03-13T18:07:19;16.80;99.90
38726;DHT22;24474;48.906;8.808;2023-03-13T18:09:46;16.70;99.90
38726;DHT22;24474;48.906;8.808;2023-03-13T18:12:14;16.60;99.90
38726;DHT22;24474;48.906;8.808;2023-03-13T18:14:41;16.40;99.90
38726;DHT22;24474;48.906;8.808;2023-03-13T18:17:21;16.20;99.90
38726;DHT22;24474;48.906;8.808;2023-03-13T18:19:49;15.90;99.90
38726;DHT22;24474;48.906;8.808;2023-03-13T18:22:20;15.50;99.90
38726;DHT22;24474;48.906;8.808;2023-03-13T18:24:46;15.30;99.90
38726;DHT22;24474;48.906;8.808;2023-03-13T18:27:19;15.20;99.90
38726;DHT22;24474;48.906;8.808;2023-03-13T18:29:49;15.10;99.90
38726;DHT22;24474;48.906;8.808;2023-03-13T18:32:16;15.00;99.90
38726;DHT22;24474;48.906;8.808;2023-03-13T18:34:44;15.00;99.90
38726;DHT22;24474;48.906;8.808;2023-03-13T18:37:29;14.90;99.90
38726;DHT22;24474;48.906;8.808;2023-03-13T18:39:58;14.90;99.90